createdAt,value
2017-03-19T00:00:24.367Z,0
2017-03-19T00:00:56.644Z,0
2017-03-19T00:01:29.025Z,0
2017-03-19T00:02:01.311Z,0
2017-03-19T00:02:33.625Z,0
2017-03-19T00:03:05.950Z,0
2017-03-19T00:03:38.270Z,0
2017-03-19T00:04:10.583Z,0
2017-03-19T00:04:42.902Z,0
2017-03-19T00:05:15.219Z,0
2017-03-19T00:05:47.540Z,0
2017-03-19T00:06:19.865Z,0
2017-03-19T00:06:52.166Z,0
2017-03-19T00:07:24.480Z,0
2017-03-19T00:07:56.811Z,0
2017-03-19T00:08:29.151Z,0
2017-03-19T00:09:01.459Z,0
2017-03-19T00:09:33.768Z,0
2017-03-19T00:10:06.081Z,0
2017-03-19T00:10:38.401Z,0
2017-03-19T00:11:10.729Z,0
2017-03-19T00:11:43.061Z,0
2017-03-19T00:12:15.388Z,0
2017-03-19T00:12:47.727Z,0
2017-03-19T00:13:20.060Z,0
2017-03-19T00:13:52.388Z,0
2017-03-19T00:14:24.708Z,0
2017-03-19T00:14:57.039Z,0
2017-03-19T00:15:29.347Z,0
2017-03-19T00:16:01.661Z,0
2017-03-19T00:16:33.989Z,0
2017-03-19T00:17:06.327Z,0
2017-03-19T00:17:38.653Z,0
2017-03-19T00:18:10.973Z,0
2017-03-19T00:18:43.275Z,0
2017-03-19T00:19:15.602Z,0
2017-03-19T00:19:47.912Z,0
2017-03-19T00:20:20.239Z,0
2017-03-19T00:20:52.567Z,0
2017-03-19T00:21:24.890Z,0
2017-03-19T00:21:57.209Z,0
2017-03-19T00:22:29.529Z,0
2017-03-19T00:23:01.849Z,0
2017-03-19T00:23:34.166Z,0
2017-03-19T00:24:06.492Z,0
2017-03-19T00:24:38.816Z,0
2017-03-19T00:25:11.131Z,0
2017-03-19T00:25:43.437Z,0
2017-03-19T00:26:15.752Z,0
2017-03-19T00:26:48.069Z,0
2017-03-19T00:27:20.392Z,0
2017-03-19T00:27:52.707Z,0
2017-03-19T00:28:25.039Z,0
2017-03-19T00:28:57.367Z,0
2017-03-19T00:29:29.681Z,0
2017-03-19T00:30:02.004Z,0
2017-03-19T00:30:34.315Z,0
2017-03-19T00:31:06.625Z,0
2017-03-19T00:31:38.939Z,0
2017-03-19T00:32:11.228Z,0
2017-03-19T00:32:43.485Z,0
2017-03-19T00:33:16.339Z,0
2017-03-19T00:33:48.617Z,0
2017-03-19T00:34:20.881Z,0
2017-03-19T00:34:53.962Z,0
2017-03-19T00:35:26.231Z,0
2017-03-19T00:35:58.589Z,0
2017-03-19T00:36:30.833Z,0
2017-03-19T00:37:03.105Z,0
2017-03-19T00:37:35.365Z,0
2017-03-19T00:38:07.617Z,0
2017-03-19T00:38:39.899Z,0
2017-03-19T00:39:13.015Z,0
2017-03-19T00:39:45.306Z,0
2017-03-19T00:40:17.571Z,0
2017-03-19T00:40:50.529Z,0
2017-03-19T00:41:22.765Z,0
2017-03-19T00:41:55.051Z,0
2017-03-19T00:42:27.377Z,0
2017-03-19T00:42:59.691Z,0
2017-03-19T00:43:32.028Z,0
2017-03-19T00:44:04.374Z,0
2017-03-19T00:44:36.707Z,0
2017-03-19T00:45:09.026Z,0
2017-03-19T00:45:41.343Z,0
2017-03-19T00:46:13.665Z,0
2017-03-19T00:46:46.008Z,0
2017-03-19T00:47:18.335Z,0
2017-03-19T00:47:50.647Z,0
2017-03-19T00:48:22.981Z,0
2017-03-19T00:48:55.311Z,0
2017-03-19T00:49:27.616Z,0
2017-03-19T00:49:59.941Z,0
2017-03-19T00:50:32.267Z,0
2017-03-19T00:51:04.594Z,0
2017-03-19T00:51:36.917Z,0
2017-03-19T00:52:09.254Z,0
2017-03-19T00:52:41.560Z,0
2017-03-19T00:53:13.874Z,0
2017-03-19T00:53:46.193Z,0
2017-03-19T00:54:18.523Z,0
2017-03-19T00:54:50.846Z,0
2017-03-19T00:55:23.199Z,0
2017-03-19T00:55:55.507Z,0
2017-03-19T00:56:27.823Z,0
2017-03-19T00:57:00.143Z,0
2017-03-19T00:57:32.451Z,0
2017-03-19T00:58:04.763Z,0
2017-03-19T00:58:37.085Z,0
2017-03-19T00:59:09.401Z,0
2017-03-19T00:59:41.722Z,0
2017-03-19T01:00:15.055Z,0
2017-03-19T01:00:48.234Z,0
2017-03-19T01:01:20.559Z,0
2017-03-19T01:01:52.844Z,0
2017-03-19T01:02:25.111Z,0
2017-03-19T01:02:57.375Z,0
2017-03-19T01:03:30.352Z,0
2017-03-19T01:04:02.610Z,0
2017-03-19T01:04:34.865Z,0
2017-03-19T01:05:07.132Z,0
2017-03-19T01:05:39.399Z,0
2017-03-19T01:06:11.638Z,0
2017-03-19T01:06:43.906Z,0
2017-03-19T01:07:16.201Z,0
2017-03-19T01:07:48.458Z,0
2017-03-19T01:08:20.743Z,0
2017-03-19T01:08:53.028Z,0
2017-03-19T01:09:25.284Z,0
2017-03-19T01:09:57.542Z,0
2017-03-19T01:10:29.790Z,0
2017-03-19T01:11:02.032Z,0
2017-03-19T01:11:34.298Z,0
2017-03-19T01:12:06.565Z,0
2017-03-19T01:12:38.828Z,0
2017-03-19T01:13:11.090Z,0
2017-03-19T01:13:43.353Z,0
2017-03-19T01:14:15.619Z,0
2017-03-19T01:14:47.876Z,0
2017-03-19T01:15:20.133Z,0
2017-03-19T01:15:52.497Z,0
2017-03-19T01:16:24.779Z,0
2017-03-19T01:16:57.032Z,0
2017-03-19T01:17:29.293Z,0
2017-03-19T01:18:01.648Z,0
2017-03-19T01:18:34.852Z,0
2017-03-19T01:19:07.126Z,0
2017-03-19T01:19:39.394Z,0
2017-03-19T01:20:11.644Z,0
2017-03-19T01:20:43.902Z,0
2017-03-19T01:21:16.147Z,0
2017-03-19T01:21:48.451Z,0
2017-03-19T01:22:20.769Z,0
2017-03-19T01:22:53.084Z,0
2017-03-19T01:23:25.422Z,0
2017-03-19T01:23:57.755Z,0
2017-03-19T01:24:30.071Z,0
2017-03-19T01:25:02.377Z,0
2017-03-19T01:25:34.700Z,0
2017-03-19T01:26:07.024Z,0
2017-03-19T01:26:39.346Z,0
2017-03-19T01:27:11.671Z,0
2017-03-19T01:27:43.996Z,0
2017-03-19T01:28:16.323Z,0
2017-03-19T01:28:48.696Z,0
2017-03-19T01:29:21.003Z,0
2017-03-19T01:29:53.312Z,0
2017-03-19T01:30:25.622Z,0
2017-03-19T01:30:57.943Z,0
2017-03-19T01:31:30.255Z,0
2017-03-19T01:32:02.569Z,0
2017-03-19T01:32:34.887Z,0
2017-03-19T01:33:07.208Z,0
2017-03-19T01:33:39.529Z,0
2017-03-19T01:34:11.853Z,0
2017-03-19T01:34:44.159Z,0
2017-03-19T01:35:16.457Z,0
2017-03-19T01:35:48.778Z,0
2017-03-19T01:36:21.091Z,0
2017-03-19T01:36:53.402Z,0
2017-03-19T01:37:25.727Z,0
2017-03-19T01:37:58.051Z,0
2017-03-19T01:38:30.379Z,0
2017-03-19T01:39:02.696Z,0
2017-03-19T01:39:35.019Z,0
2017-03-19T01:40:07.327Z,0
2017-03-19T01:40:39.663Z,0
2017-03-19T01:41:11.981Z,0
2017-03-19T01:41:44.286Z,0
2017-03-19T01:42:16.612Z,0
2017-03-19T01:42:48.930Z,0
2017-03-19T01:43:21.255Z,0
2017-03-19T01:43:53.590Z,0
2017-03-19T01:44:25.913Z,0
2017-03-19T01:44:58.243Z,0
2017-03-19T01:45:30.554Z,0
2017-03-19T01:46:02.874Z,0
2017-03-19T01:46:35.173Z,0
2017-03-19T01:47:07.477Z,0
2017-03-19T01:47:39.791Z,0
2017-03-19T01:48:12.101Z,0
2017-03-19T01:48:44.410Z,0
2017-03-19T01:49:16.713Z,0
2017-03-19T01:49:49.038Z,0
2017-03-19T01:50:21.350Z,0
2017-03-19T01:50:53.659Z,0
2017-03-19T01:51:25.961Z,0
2017-03-19T01:51:58.235Z,0
2017-03-19T01:52:30.485Z,0
2017-03-19T01:53:02.742Z,0
2017-03-19T01:53:35.955Z,0
2017-03-19T01:54:08.243Z,0
2017-03-19T01:54:40.501Z,0
2017-03-19T01:55:12.750Z,0
2017-03-19T01:55:44.990Z,0
2017-03-19T01:56:17.242Z,0
2017-03-19T01:56:49.483Z,0
2017-03-19T01:57:21.815Z,0
2017-03-19T01:57:54.065Z,0
2017-03-19T01:58:26.335Z,0
2017-03-19T01:58:58.601Z,0
2017-03-19T01:59:30.872Z,0
2017-03-19T02:00:03.131Z,0
2017-03-19T02:00:35.433Z,0
2017-03-19T02:01:07.707Z,0
2017-03-19T02:01:39.980Z,0
2017-03-19T02:02:12.238Z,0
2017-03-19T02:02:44.504Z,0
2017-03-19T02:03:16.861Z,0
2017-03-19T02:03:49.119Z,0
2017-03-19T02:04:21.397Z,0
2017-03-19T02:04:53.666Z,0
2017-03-19T02:05:25.943Z,0
2017-03-19T02:05:58.195Z,0
2017-03-19T02:06:31.035Z,0
2017-03-19T02:07:03.311Z,0
2017-03-19T02:07:35.565Z,0
2017-03-19T02:08:07.832Z,0
2017-03-19T02:08:40.086Z,0
2017-03-19T02:09:12.333Z,0
2017-03-19T02:09:45.539Z,0
2017-03-19T02:10:17.789Z,0
2017-03-19T02:10:50.027Z,0
2017-03-19T02:11:22.265Z,0
2017-03-19T02:11:54.516Z,0
2017-03-19T02:12:26.764Z,0
2017-03-19T02:12:59.111Z,0
2017-03-19T02:13:31.400Z,0
2017-03-19T02:14:03.655Z,0
2017-03-19T02:14:35.935Z,0
2017-03-19T02:15:08.165Z,0
2017-03-19T02:15:40.414Z,0
2017-03-19T02:16:13.564Z,0
2017-03-19T02:16:45.856Z,0
2017-03-19T02:17:18.118Z,0
2017-03-19T02:17:50.371Z,0
2017-03-19T02:18:22.622Z,0
2017-03-19T02:18:54.885Z,0
2017-03-19T02:19:27.156Z,0
2017-03-19T02:19:59.458Z,0
2017-03-19T02:20:31.771Z,0
2017-03-19T02:21:04.041Z,0
2017-03-19T02:21:36.292Z,0
2017-03-19T02:22:09.046Z,0
2017-03-19T02:22:41.329Z,0
2017-03-19T02:23:13.580Z,0
2017-03-19T02:23:45.963Z,0
2017-03-19T02:24:18.210Z,0
2017-03-19T02:24:50.473Z,0
2017-03-19T02:25:22.741Z,0
2017-03-19T02:25:55.007Z,0
2017-03-19T02:26:27.265Z,0
2017-03-19T02:26:59.505Z,0
2017-03-19T02:27:31.769Z,0
2017-03-19T02:28:04.039Z,0
2017-03-19T02:28:36.336Z,0
2017-03-19T02:29:08.654Z,0
2017-03-19T02:29:40.946Z,0
2017-03-19T02:30:13.217Z,0
2017-03-19T02:30:45.465Z,0
2017-03-19T02:31:17.715Z,0
2017-03-19T02:31:49.990Z,0
2017-03-19T02:32:22.250Z,0
2017-03-19T02:32:54.532Z,0
2017-03-19T02:33:26.792Z,0
2017-03-19T02:33:59.067Z,0
2017-03-19T02:34:32.022Z,0
2017-03-19T02:35:04.289Z,0
2017-03-19T02:35:36.527Z,0
2017-03-19T02:36:08.795Z,0
2017-03-19T02:36:41.071Z,0
2017-03-19T02:37:13.310Z,0
2017-03-19T02:37:45.555Z,0
2017-03-19T02:38:17.817Z,0
2017-03-19T02:38:50.873Z,0
2017-03-19T02:39:23.135Z,0
2017-03-19T02:39:55.415Z,0
2017-03-19T02:40:27.677Z,0
2017-03-19T02:40:59.956Z,0
2017-03-19T02:41:32.210Z,0
2017-03-19T02:42:04.472Z,0
2017-03-19T02:42:36.731Z,0
2017-03-19T02:43:08.996Z,0
2017-03-19T02:43:41.240Z,0
2017-03-19T02:44:13.509Z,0
2017-03-19T02:44:45.751Z,0
2017-03-19T02:45:18.034Z,0
2017-03-19T02:45:50.283Z,0
2017-03-19T02:46:22.560Z,0
2017-03-19T02:46:54.816Z,0
2017-03-19T02:47:27.071Z,0
2017-03-19T02:47:59.317Z,0
2017-03-19T02:48:31.571Z,0
2017-03-19T02:49:03.826Z,0
2017-03-19T02:49:36.100Z,0
2017-03-19T02:50:08.344Z,0
2017-03-19T02:50:40.601Z,0
2017-03-19T02:51:12.862Z,0
2017-03-19T02:51:45.172Z,0
2017-03-19T02:52:17.468Z,0
2017-03-19T02:52:49.786Z,0
2017-03-19T02:53:22.100Z,0
2017-03-19T02:53:54.429Z,0
2017-03-19T02:54:26.760Z,0
2017-03-19T02:54:59.146Z,0
2017-03-19T02:55:31.466Z,0
2017-03-19T02:56:03.780Z,0
2017-03-19T02:56:36.108Z,0
2017-03-19T02:57:08.420Z,0
2017-03-19T02:57:40.744Z,0
2017-03-19T02:58:13.072Z,0
2017-03-19T02:58:45.403Z,0
2017-03-19T02:59:17.788Z,0
2017-03-19T02:59:50.118Z,0
2017-03-19T03:00:22.426Z,0
2017-03-19T03:00:54.724Z,0
2017-03-19T03:01:27.015Z,0
2017-03-19T03:01:59.313Z,0
2017-03-19T03:02:31.551Z,0
2017-03-19T03:03:03.817Z,0
2017-03-19T03:03:36.073Z,0
2017-03-19T03:04:08.320Z,0
2017-03-19T03:04:40.588Z,0
2017-03-19T03:05:13.433Z,0
2017-03-19T03:05:45.705Z,0
2017-03-19T03:06:18.946Z,0
2017-03-19T03:06:51.226Z,0
2017-03-19T03:07:23.605Z,0
2017-03-19T03:07:55.877Z,0
2017-03-19T03:08:28.144Z,0
2017-03-19T03:09:00.392Z,0
2017-03-19T03:09:32.660Z,0
2017-03-19T03:10:05.653Z,0
2017-03-19T03:10:37.926Z,0
2017-03-19T03:11:10.179Z,0
2017-03-19T03:11:42.503Z,0
2017-03-19T03:12:14.800Z,0
2017-03-19T03:12:47.119Z,0
2017-03-19T03:13:19.443Z,0
2017-03-19T03:13:51.785Z,0
2017-03-19T03:14:24.111Z,0
2017-03-19T03:14:56.468Z,0
2017-03-19T03:15:28.797Z,0
2017-03-19T03:16:01.127Z,0
2017-03-19T03:16:33.455Z,0
2017-03-19T03:17:05.788Z,0
2017-03-19T03:17:38.121Z,0
2017-03-19T03:18:10.458Z,0
2017-03-19T03:18:42.807Z,0
2017-03-19T03:19:15.133Z,0
2017-03-19T03:19:47.459Z,0
2017-03-19T03:20:19.792Z,0
2017-03-19T03:20:52.111Z,0
2017-03-19T03:21:24.439Z,0
2017-03-19T03:21:56.753Z,0
2017-03-19T03:22:29.068Z,0
2017-03-19T03:23:01.391Z,0
2017-03-19T03:23:33.713Z,0
2017-03-19T03:24:06.051Z,0
2017-03-19T03:24:38.387Z,0
2017-03-19T03:25:10.689Z,0
2017-03-19T03:25:42.997Z,0
2017-03-19T03:26:15.328Z,0
2017-03-19T03:26:47.651Z,0
2017-03-19T03:27:19.968Z,0
2017-03-19T03:27:52.287Z,0
2017-03-19T03:28:24.618Z,0
2017-03-19T03:28:56.934Z,0
2017-03-19T03:29:29.233Z,0
2017-03-19T03:30:01.549Z,0
2017-03-19T03:30:33.858Z,0
2017-03-19T03:31:06.174Z,0
2017-03-19T03:31:38.486Z,0
2017-03-19T03:32:10.786Z,0
2017-03-19T03:32:43.101Z,0
2017-03-19T03:33:15.424Z,0
2017-03-19T03:33:47.746Z,0
2017-03-19T03:34:20.080Z,0
2017-03-19T03:34:52.411Z,0
2017-03-19T03:35:24.739Z,0
2017-03-19T03:35:57.059Z,0
2017-03-19T03:36:29.381Z,0
2017-03-19T03:37:01.739Z,0
2017-03-19T03:37:34.066Z,0
2017-03-19T03:38:06.396Z,0
2017-03-19T03:38:38.698Z,0
2017-03-19T03:39:11.001Z,0
2017-03-19T03:39:43.358Z,0
2017-03-19T03:40:15.673Z,0
2017-03-19T03:40:47.990Z,0
2017-03-19T03:41:20.305Z,0
2017-03-19T03:41:52.618Z,0
2017-03-19T03:42:24.922Z,0
2017-03-19T03:42:57.240Z,0
2017-03-19T03:43:29.567Z,0
2017-03-19T03:44:01.897Z,0
2017-03-19T03:44:34.211Z,0
2017-03-19T03:45:06.554Z,0
2017-03-19T03:45:38.863Z,0
2017-03-19T03:46:11.177Z,0
2017-03-19T03:46:43.502Z,0
2017-03-19T03:47:15.817Z,0
2017-03-19T03:47:48.155Z,0
2017-03-19T03:48:20.569Z,0
2017-03-19T03:48:52.885Z,0
2017-03-19T03:49:25.217Z,0
2017-03-19T03:49:57.553Z,0
2017-03-19T03:50:29.908Z,0
2017-03-19T03:51:02.239Z,0
2017-03-19T03:51:34.558Z,0
2017-03-19T03:52:06.898Z,0
2017-03-19T03:52:39.209Z,0
2017-03-19T03:53:11.537Z,0
2017-03-19T03:53:43.855Z,0
2017-03-19T03:54:16.169Z,0
2017-03-19T03:54:48.489Z,0
2017-03-19T03:55:20.803Z,0
2017-03-19T03:55:53.105Z,0
2017-03-19T03:56:25.428Z,0
2017-03-19T03:56:57.743Z,0
2017-03-19T03:57:30.065Z,0
2017-03-19T03:58:02.413Z,0
2017-03-19T03:58:34.720Z,0
2017-03-19T03:59:07.060Z,0
2017-03-19T03:59:39.395Z,0
2017-03-19T04:00:11.748Z,0
2017-03-19T04:00:44.058Z,0
2017-03-19T04:01:16.411Z,0
2017-03-19T04:01:48.733Z,0
2017-03-19T04:02:20.999Z,0
2017-03-19T04:02:53.260Z,0
2017-03-19T04:03:25.522Z,0
2017-03-19T04:03:57.776Z,0
2017-03-19T04:04:30.020Z,0
2017-03-19T04:05:02.292Z,0
2017-03-19T04:05:35.109Z,0
2017-03-19T04:06:07.368Z,0
2017-03-19T04:06:39.622Z,0
2017-03-19T04:07:11.885Z,0
2017-03-19T04:07:44.157Z,0
2017-03-19T04:08:16.445Z,0
2017-03-19T04:08:48.700Z,0
2017-03-19T04:09:20.956Z,0
2017-03-19T04:09:53.251Z,0
2017-03-19T04:10:25.503Z,0
2017-03-19T04:10:57.772Z,0
2017-03-19T04:11:30.053Z,0
2017-03-19T04:12:02.329Z,0
2017-03-19T04:12:34.608Z,0
2017-03-19T04:13:06.873Z,0
2017-03-19T04:13:39.125Z,0
2017-03-19T04:14:11.392Z,0
2017-03-19T04:14:43.654Z,0
2017-03-19T04:15:15.906Z,0
2017-03-19T04:15:48.142Z,0
2017-03-19T04:16:20.408Z,0
2017-03-19T04:16:52.654Z,0
2017-03-19T04:17:24.957Z,0
2017-03-19T04:17:57.251Z,0
2017-03-19T04:18:29.523Z,0
2017-03-19T04:19:01.778Z,0
2017-03-19T04:19:34.021Z,0
2017-03-19T04:20:06.275Z,0
2017-03-19T04:20:38.534Z,0
2017-03-19T04:21:10.782Z,0
2017-03-19T04:21:43.044Z,0
2017-03-19T04:22:15.296Z,0
2017-03-19T04:22:47.561Z,0
2017-03-19T04:23:19.818Z,0
2017-03-19T04:23:52.083Z,0
2017-03-19T04:24:24.379Z,0
2017-03-19T04:24:56.668Z,0
2017-03-19T04:25:28.937Z,0
2017-03-19T04:26:01.238Z,0
2017-03-19T04:26:33.506Z,0
2017-03-19T04:27:05.801Z,0
2017-03-19T04:27:38.079Z,0
2017-03-19T04:28:10.343Z,0
2017-03-19T04:28:42.615Z,0
2017-03-19T04:29:14.874Z,0
2017-03-19T04:29:47.126Z,0
2017-03-19T04:30:19.389Z,0
2017-03-19T04:30:51.653Z,0
2017-03-19T04:31:24.026Z,0
2017-03-19T04:31:56.312Z,0
2017-03-19T04:32:28.613Z,0
2017-03-19T04:33:00.949Z,0
2017-03-19T04:33:33.297Z,0
2017-03-19T04:34:05.611Z,0
2017-03-19T04:34:37.935Z,0
2017-03-19T04:35:10.255Z,0
2017-03-19T04:35:42.580Z,0
2017-03-19T04:36:14.887Z,0
2017-03-19T04:36:47.198Z,0
2017-03-19T04:37:19.552Z,0
2017-03-19T04:37:51.871Z,0
2017-03-19T04:38:24.204Z,0
2017-03-19T04:38:56.535Z,0
2017-03-19T04:39:28.861Z,0
2017-03-19T04:40:01.207Z,0
2017-03-19T04:40:33.518Z,0
2017-03-19T04:41:05.825Z,0
2017-03-19T04:41:38.124Z,0
2017-03-19T04:42:10.421Z,0
2017-03-19T04:42:42.677Z,0
2017-03-19T04:43:14.951Z,0
2017-03-19T04:43:47.235Z,0
2017-03-19T04:44:19.511Z,0
2017-03-19T04:44:52.626Z,0
2017-03-19T04:45:24.966Z,0
2017-03-19T04:45:57.222Z,0
2017-03-19T04:46:29.464Z,0
2017-03-19T04:47:01.731Z,0
2017-03-19T04:47:33.984Z,0
2017-03-19T04:48:06.243Z,0
2017-03-19T04:48:38.522Z,0
2017-03-19T04:49:11.565Z,0
2017-03-19T04:49:43.825Z,0
2017-03-19T04:50:16.077Z,0
2017-03-19T04:50:48.323Z,0
2017-03-19T04:51:20.578Z,0
2017-03-19T04:51:52.831Z,0
2017-03-19T04:52:25.080Z,0
2017-03-19T04:52:57.340Z,0
2017-03-19T04:53:30.516Z,0
2017-03-19T04:54:02.790Z,0
2017-03-19T04:54:35.065Z,0
2017-03-19T04:55:07.340Z,0
2017-03-19T04:55:39.599Z,0
2017-03-19T04:56:11.832Z,0
2017-03-19T04:56:44.076Z,0
2017-03-19T04:57:16.334Z,0
2017-03-19T04:57:48.747Z,0
2017-03-19T04:58:20.992Z,0
2017-03-19T04:58:53.252Z,0
2017-03-19T04:59:25.499Z,0
2017-03-19T04:59:57.765Z,0
2017-03-19T05:00:30.018Z,0
2017-03-19T05:01:02.279Z,0
2017-03-19T05:01:34.567Z,0
2017-03-19T05:02:06.817Z,0
2017-03-19T05:02:39.075Z,0
2017-03-19T05:03:11.988Z,0
2017-03-19T05:03:44.282Z,0
2017-03-19T05:04:16.556Z,0
2017-03-19T05:04:48.814Z,0
2017-03-19T05:05:21.067Z,0
2017-03-19T05:05:53.339Z,0
2017-03-19T05:06:25.576Z,0
2017-03-19T05:06:57.819Z,0
2017-03-19T05:07:30.177Z,0
2017-03-19T05:08:02.433Z,0
2017-03-19T05:08:34.678Z,0
2017-03-19T05:09:07.538Z,0
2017-03-19T05:09:39.796Z,0
2017-03-19T05:10:12.047Z,0
2017-03-19T05:10:44.321Z,0
2017-03-19T05:11:16.576Z,0
2017-03-19T05:11:48.860Z,0
2017-03-19T05:12:21.172Z,0
2017-03-19T05:12:53.490Z,0
2017-03-19T05:13:25.817Z,0
2017-03-19T05:13:58.158Z,0
2017-03-19T05:14:30.466Z,0
2017-03-19T05:15:02.791Z,0
2017-03-19T05:15:35.097Z,0
2017-03-19T05:16:07.425Z,0
2017-03-19T05:16:39.745Z,0
2017-03-19T05:17:12.058Z,0
2017-03-19T05:17:44.377Z,0
2017-03-19T05:18:16.705Z,0
2017-03-19T05:18:49.022Z,4
2017-03-19T05:19:21.354Z,4
2017-03-19T05:19:53.685Z,4
2017-03-19T05:20:25.994Z,4
2017-03-19T05:20:58.300Z,4
2017-03-19T05:21:30.628Z,4
2017-03-19T05:22:02.923Z,4
2017-03-19T05:22:35.191Z,4
2017-03-19T05:23:07.449Z,4
2017-03-19T05:23:39.709Z,0
2017-03-19T05:24:11.965Z,4
2017-03-19T05:24:45.109Z,4
2017-03-19T05:25:17.406Z,4
2017-03-19T05:25:49.676Z,8
2017-03-19T05:26:21.934Z,4
2017-03-19T05:26:54.192Z,8
2017-03-19T05:27:26.443Z,8
2017-03-19T05:27:58.708Z,8
2017-03-19T05:28:30.971Z,8
2017-03-19T05:29:03.255Z,8
2017-03-19T05:29:35.530Z,4
2017-03-19T05:30:07.788Z,8
2017-03-19T05:30:40.048Z,8
2017-03-19T05:31:12.306Z,8
2017-03-19T05:31:44.550Z,8
2017-03-19T05:32:16.840Z,8
2017-03-19T05:32:49.149Z,8
2017-03-19T05:33:21.486Z,8
2017-03-19T05:33:53.817Z,8
2017-03-19T05:34:26.140Z,8
2017-03-19T05:34:58.469Z,8
2017-03-19T05:35:30.803Z,8
2017-03-19T05:36:03.113Z,12
2017-03-19T05:36:35.431Z,12
2017-03-19T05:37:07.764Z,8
2017-03-19T05:37:40.101Z,8
2017-03-19T05:38:12.406Z,8
2017-03-19T05:38:44.734Z,12
2017-03-19T05:39:17.061Z,12
2017-03-19T05:39:49.373Z,12
2017-03-19T05:40:21.692Z,16
2017-03-19T05:40:54.012Z,16
2017-03-19T05:41:26.330Z,20
2017-03-19T05:41:58.617Z,20
2017-03-19T05:42:30.865Z,20
2017-03-19T05:43:03.119Z,16
2017-03-19T05:43:35.392Z,16
2017-03-19T05:44:07.653Z,16
2017-03-19T05:44:39.892Z,16
2017-03-19T05:45:12.647Z,16
2017-03-19T05:45:44.917Z,20
2017-03-19T05:46:17.167Z,20
2017-03-19T05:46:49.411Z,16
2017-03-19T05:47:21.676Z,20
2017-03-19T05:47:53.942Z,20
2017-03-19T05:48:26.215Z,20
2017-03-19T05:48:58.465Z,20
2017-03-19T05:49:30.710Z,20
2017-03-19T05:50:02.982Z,20
2017-03-19T05:50:35.234Z,24
2017-03-19T05:51:07.498Z,28
2017-03-19T05:51:39.757Z,28
2017-03-19T05:52:12.032Z,28
2017-03-19T05:52:44.342Z,28
2017-03-19T05:53:16.657Z,28
2017-03-19T05:53:48.987Z,24
2017-03-19T05:54:21.327Z,24
2017-03-19T05:54:53.658Z,28
2017-03-19T05:55:25.994Z,28
2017-03-19T05:55:58.326Z,32
2017-03-19T05:56:30.631Z,36
2017-03-19T05:57:03.061Z,36
2017-03-19T05:57:35.381Z,40
2017-03-19T05:58:07.690Z,40
2017-03-19T05:58:40.028Z,44
2017-03-19T05:59:12.349Z,44
2017-03-19T05:59:44.690Z,48
2017-03-19T06:00:17.011Z,48
2017-03-19T06:00:49.334Z,56
2017-03-19T06:01:21.642Z,64
2017-03-19T06:01:53.955Z,72
2017-03-19T06:02:26.280Z,72
2017-03-19T06:02:58.603Z,72
2017-03-19T06:03:30.970Z,72
2017-03-19T06:04:03.281Z,72
2017-03-19T06:04:35.594Z,64
2017-03-19T06:05:07.930Z,64
2017-03-19T06:05:40.256Z,68
2017-03-19T06:06:12.598Z,72
2017-03-19T06:06:44.922Z,72
2017-03-19T06:07:17.257Z,80
2017-03-19T06:07:49.567Z,84
2017-03-19T06:08:21.873Z,88
2017-03-19T06:08:54.196Z,92
2017-03-19T06:09:26.514Z,96
2017-03-19T06:09:58.845Z,104
2017-03-19T06:10:31.171Z,120
2017-03-19T06:11:03.481Z,124
2017-03-19T06:11:35.785Z,132
2017-03-19T06:12:08.060Z,148
2017-03-19T06:12:40.308Z,152
2017-03-19T06:13:12.578Z,148
2017-03-19T06:13:44.826Z,160
2017-03-19T06:14:17.102Z,164
2017-03-19T06:14:49.353Z,172
2017-03-19T06:15:21.598Z,164
2017-03-19T06:15:53.975Z,168
2017-03-19T06:16:26.220Z,180
2017-03-19T06:16:58.492Z,188
2017-03-19T06:17:30.757Z,204
2017-03-19T06:18:03.015Z,216
2017-03-19T06:18:36.055Z,232
2017-03-19T06:19:08.307Z,220
2017-03-19T06:19:40.584Z,228
2017-03-19T06:20:13.567Z,220
2017-03-19T06:20:45.830Z,224
2017-03-19T06:21:18.660Z,220
2017-03-19T06:21:50.946Z,220
2017-03-19T06:22:23.274Z,208
2017-03-19T06:22:55.612Z,188
2017-03-19T06:23:27.949Z,180
2017-03-19T06:24:00.258Z,172
2017-03-19T06:24:32.584Z,168
2017-03-19T06:25:04.915Z,180
2017-03-19T06:25:37.231Z,200
2017-03-19T06:26:09.556Z,204
2017-03-19T06:26:41.855Z,188
2017-03-19T06:27:14.172Z,200
2017-03-19T06:27:46.499Z,200
2017-03-19T06:28:18.827Z,192
2017-03-19T06:28:51.201Z,180
2017-03-19T06:29:23.522Z,184
2017-03-19T06:29:55.847Z,188
2017-03-19T06:30:28.503Z,208
2017-03-19T06:31:00.845Z,220
2017-03-19T06:31:33.148Z,236
2017-03-19T06:32:05.473Z,244
2017-03-19T06:32:37.791Z,240
2017-03-19T06:33:10.113Z,228
2017-03-19T06:33:42.444Z,212
2017-03-19T06:34:14.771Z,192
2017-03-19T06:34:47.096Z,176
2017-03-19T06:35:19.423Z,172
2017-03-19T06:35:51.741Z,164
2017-03-19T06:36:24.071Z,160
2017-03-19T06:36:56.388Z,160
2017-03-19T06:37:28.736Z,148
2017-03-19T06:38:01.047Z,144
2017-03-19T06:38:33.367Z,144
2017-03-19T06:39:05.670Z,144
2017-03-19T06:39:37.972Z,140
2017-03-19T06:40:10.290Z,140
2017-03-19T06:40:42.595Z,144
2017-03-19T06:41:14.896Z,144
2017-03-19T06:41:47.217Z,148
2017-03-19T06:42:19.543Z,152
2017-03-19T06:42:51.844Z,148
2017-03-19T06:43:24.150Z,152
2017-03-19T06:43:56.448Z,156
2017-03-19T06:44:28.749Z,164
2017-03-19T06:45:01.058Z,168
2017-03-19T06:45:33.378Z,172
2017-03-19T06:46:05.690Z,172
2017-03-19T06:46:37.986Z,176
2017-03-19T06:47:10.296Z,184
2017-03-19T06:47:42.615Z,180
2017-03-19T06:48:14.940Z,184
2017-03-19T06:48:47.268Z,176
2017-03-19T06:49:19.587Z,184
2017-03-19T06:49:51.919Z,188
2017-03-19T06:50:24.235Z,192
2017-03-19T06:50:56.543Z,180
2017-03-19T06:51:28.857Z,184
2017-03-19T06:52:01.163Z,208
2017-03-19T06:52:33.461Z,216
2017-03-19T06:53:05.775Z,232
2017-03-19T06:53:38.093Z,240
2017-03-19T06:54:10.424Z,244
2017-03-19T06:54:42.746Z,264
2017-03-19T06:55:15.056Z,272
2017-03-19T06:55:47.367Z,288
2017-03-19T06:56:19.682Z,308
2017-03-19T06:56:52.002Z,312
2017-03-19T06:57:24.340Z,328
2017-03-19T06:57:56.676Z,356
2017-03-19T06:58:29.010Z,384
2017-03-19T06:59:01.341Z,408
2017-03-19T06:59:33.697Z,392
2017-03-19T07:00:06.006Z,384
2017-03-19T07:00:38.318Z,408
2017-03-19T07:01:10.645Z,400
2017-03-19T07:01:42.972Z,416
2017-03-19T07:02:15.253Z,456
2017-03-19T07:02:47.517Z,416
2017-03-19T07:03:20.536Z,416
2017-03-19T07:03:52.795Z,436
2017-03-19T07:04:25.082Z,460
2017-03-19T07:04:57.344Z,484
2017-03-19T07:05:29.674Z,484
2017-03-19T07:06:01.930Z,500
2017-03-19T07:06:34.211Z,508
2017-03-19T07:07:06.456Z,500
2017-03-19T07:07:38.716Z,528
2017-03-19T07:08:10.974Z,492
2017-03-19T07:08:43.285Z,500
2017-03-19T07:09:15.552Z,492
2017-03-19T07:09:47.824Z,512
2017-03-19T07:10:20.085Z,552
2017-03-19T07:10:52.355Z,584
2017-03-19T07:11:25.602Z,552
2017-03-19T07:11:57.886Z,552
2017-03-19T07:12:30.214Z,608
2017-03-19T07:13:02.537Z,668
2017-03-19T07:13:34.848Z,680
2017-03-19T07:14:07.180Z,704
2017-03-19T07:14:39.498Z,704
2017-03-19T07:15:11.820Z,692
2017-03-19T07:15:44.135Z,716
2017-03-19T07:16:16.463Z,648
2017-03-19T07:16:48.785Z,632
2017-03-19T07:17:21.091Z,688
2017-03-19T07:17:53.409Z,716
2017-03-19T07:18:25.734Z,724
2017-03-19T07:18:58.057Z,748
2017-03-19T07:19:30.405Z,720
2017-03-19T07:20:02.745Z,724
2017-03-19T07:20:35.076Z,792
2017-03-19T07:21:07.405Z,776
2017-03-19T07:21:39.747Z,716
2017-03-19T07:22:12.050Z,772
2017-03-19T07:22:44.383Z,768
2017-03-19T07:23:16.701Z,800
2017-03-19T07:23:49.023Z,820
2017-03-19T07:24:21.347Z,804
2017-03-19T07:24:53.657Z,744
2017-03-19T07:25:25.976Z,680
2017-03-19T07:25:58.275Z,600
2017-03-19T07:26:30.583Z,560
2017-03-19T07:27:02.889Z,660
2017-03-19T07:27:35.197Z,720
2017-03-19T07:28:07.535Z,652
2017-03-19T07:28:39.862Z,680
2017-03-19T07:29:12.216Z,748
2017-03-19T07:29:44.546Z,728
2017-03-19T07:30:16.859Z,644
2017-03-19T07:30:49.159Z,580
2017-03-19T07:31:21.468Z,544
2017-03-19T07:31:53.792Z,484
2017-03-19T07:32:26.107Z,464
2017-03-19T07:32:58.429Z,444
2017-03-19T07:33:30.761Z,392
2017-03-19T07:34:03.096Z,372
2017-03-19T07:34:35.423Z,400
2017-03-19T07:35:07.738Z,388
2017-03-19T07:35:40.057Z,372
2017-03-19T07:36:12.388Z,380
2017-03-19T07:36:44.706Z,404
2017-03-19T07:37:17.037Z,424
2017-03-19T07:37:49.363Z,468
2017-03-19T07:38:21.709Z,480
2017-03-19T07:38:54.032Z,504
2017-03-19T07:39:26.366Z,540
2017-03-19T07:39:58.702Z,520
2017-03-19T07:40:31.015Z,540
2017-03-19T07:41:03.320Z,508
2017-03-19T07:41:35.636Z,524
2017-03-19T07:42:07.963Z,520
2017-03-19T07:42:40.271Z,524
2017-03-19T07:43:12.597Z,564
2017-03-19T07:43:44.923Z,596
2017-03-19T07:44:17.247Z,580
2017-03-19T07:44:49.556Z,668
2017-03-19T07:45:21.877Z,640
2017-03-19T07:45:54.206Z,648
2017-03-19T07:46:26.531Z,648
2017-03-19T07:46:58.843Z,672
2017-03-19T07:47:31.169Z,756
2017-03-19T07:48:03.492Z,728
2017-03-19T07:48:35.817Z,708
2017-03-19T07:49:08.149Z,720
2017-03-19T07:49:40.469Z,732